Time;durP1;ratioP1;P1;durP2;ratioP2;P2;SDS_P1;SDS_P2;PMS_P1;PMS_P2;Temp;Humidity;BMP_temperature;BMP_pressure;BME280_temperature;BME280_humidity;BME280_pressure;Samples;Min_cycle;Max_cycle;Signal;HPM_P1;HPM_P2
2023/08/12 00:00:25;;;;;;;3.17;2.83;;;;;;;20.04;100.00;97623.88;5091386;28;20926;-74
2023/08/12 00:02:51;;;;;;;3.42;2.63;;;;;;;20.04;100.00;97621.19;5091211;28;20473;-74
2023/08/12 00:05:17;;;;;;;3.30;2.70;;;;;;;20.04;100.00;97616.59;5091194;28;20757;-74
2023/08/12 00:07:44;;;;;;;3.83;2.50;;;;;;;20.02;100.00;97624.16;5091231;28;20423;-74
2023/08/12 00:10:11;;;;;;;2.70;2.35;;;;;;;20.01;100.00;97616.41;5091259;28;20906;-74
2023/08/12 00:12:39;;;;;;;2.83;2.53;;;;;;;19.99;100.00;97619.44;5090763;28;20464;-74
2023/08/12 00:15:07;;;;;;;3.30;2.70;;;;;;;19.96;100.00;97617.34;5086410;28;20916;-74
2023/08/12 00:17:35;;;;;;;4.50;2.88;;;;;;;19.94;100.00;97603.41;5088067;28;20798;-74
2023/08/12 00:20:05;;;;;;;4.60;2.97;;;;;;;19.92;100.00;97605.59;5078338;28;20396;-73
2023/08/12 00:22:31;;;;;;;4.22;2.80;;;;;;;19.92;100.00;97596.78;5070666;28;20411;-74
2023/08/12 00:24:57;;;;;;;3.40;2.80;;;;;;;19.92;100.00;97599.47;5070634;28;20494;-74
2023/08/12 00:27:24;;;;;;;3.00;2.70;;;;;;;19.90;100.00;97597.06;5070779;28;20873;-74
2023/08/12 00:29:51;;;;;;;4.17;2.60;;;;;;;19.89;100.00;97594.69;5070439;28;20472;-74
2023/08/12 00:32:18;;;;;;;3.03;2.63;;;;;;;19.89;100.00;97600.06;5070584;28;20415;-74
2023/08/12 00:34:44;;;;;;;3.22;2.60;;;;;;;19.88;100.00;97593.09;5070547;28;20391;-74
2023/08/12 00:37:10;;;;;;;3.10;2.70;;;;;;;19.86;100.00;97592.59;5070619;28;20404;-74
2023/08/12 00:39:37;;;;;;;3.05;2.67;;;;;;;19.82;100.00;97589.75;5070295;28;20487;-74
2023/08/12 00:42:03;;;;;;;3.30;2.60;;;;;;;19.82;100.00;97588.94;5070450;28;20404;-74
2023/08/12 00:44:29;;;;;;;3.50;2.83;;;;;;;19.80;100.00;97585.75;5070408;28;20416;-74
2023/08/12 00:46:57;;;;;;;3.30;2.88;;;;;;;19.78;100.00;97586.06;5070357;28;20498;-74
2023/08/12 00:49:23;;;;;;;3.17;2.63;;;;;;;19.75;100.00;97580.53;5070510;28;20404;-74
2023/08/12 00:51:52;;;;;;;3.78;3.00;;;;;;;19.73;100.00;97580.81;5070260;28;20396;-74
2023/08/12 00:54:20;;;;;;;3.47;2.92;;;;;;;19.68;100.00;97576.38;5070409;28;20407;-74
2023/08/12 00:56:48;;;;;;;3.28;2.85;;;;;;;19.67;100.00;97577.47;5070121;28;20407;-74
2023/08/12 00:59:17;;;;;;;3.90;2.60;;;;;;;19.67;100.00;97574.78;5070209;28;20400;-74
2023/08/12 01:01:44;;;;;;;2.60;2.40;;;;;;;19.65;100.00;97566.22;5070066;28;20790;-74
2023/08/12 01:04:11;;;;;;;4.43;2.40;;;;;;;19.65;100.00;97568.91;5070160;28;20882;-74
2023/08/12 01:06:38;;;;;;;3.63;2.67;;;;;;;19.64;100.00;97567.31;5070173;28;20487;-74
2023/08/12 01:09:05;;;;;;;3.05;2.70;;;;;;;19.63;100.00;97567.63;5070058;28;20407;-74
2023/08/12 01:11:39;;;;;;;2.50;2.30;;;;;;;19.61;100.00;97567.16;5070080;28;20458;-74
2023/08/12 01:14:12;;;;;;;2.80;2.50;;;;;;;19.57;100.00;97561.59;5070139;28;20885;-74
2023/08/12 01:16:43;;;;;;;3.22;2.75;;;;;;;19.58;100.00;97562.38;5070109;28;20441;-74
2023/08/12 01:19:21;;;;;;;5.00;2.93;;;;;;;19.54;100.00;97562.22;5083658;28;20398;-74
2023/08/12 01:21:49;;;;;;;3.22;2.90;;;;;;;19.51;100.00;97562.81;5090249;28;20455;-74
2023/08/12 01:24:19;;;;;;;3.95;3.00;;;;;;;19.49;100.00;97554.25;5090164;28;20402;-74
2023/08/12 01:26:45;;;;;;;5.25;2.80;;;;;;;19.48;100.00;97551.88;5090144;28;20753;-74
2023/08/12 01:29:12;;;;;;;3.70;2.72;;;;;;;19.47;100.00;97547.63;5090097;28;20481;-74
2023/08/12 01:31:45;;;;;;;4.05;2.80;;;;;;;19.45;100.00;97545.22;5090148;28;20486;-74
2023/08/12 01:34:16;;;;;;;3.40;2.50;;;;;;;19.46;100.00;97538.75;5090165;28;20473;-74
2023/08/12 01:36:49;;;;;;;3.65;2.83;;;;;;;19.46;100.00;97537.94;5090119;28;20456;-74
2023/08/12 01:39:19;;;;;;;4.33;2.90;;;;;;;19.46;100.00;97544.13;5090092;28;20394;-74
2023/08/12 01:41:45;;;;;;;3.50;2.72;;;;;;;19.45;100.00;97534.47;5093527;28;20397;-74
2023/08/12 01:44:12;;;;;;;3.95;3.05;;;;;;;19.44;100.00;97535.56;5093930;28;20441;-74
2023/08/12 01:46:38;;;;;;;4.20;2.97;;;;;;;19.44;100.00;97529.41;5093923;28;20808;-74
2023/08/12 01:49:04;;;;;;;3.97;2.95;;;;;;;19.42;100.00;97534.28;5093817;28;20397;-74
2023/08/12 01:51:31;;;;;;;3.55;2.70;;;;;;;19.39;100.00;97534.91;5093940;28;20759;-74
2023/08/12 01:53:57;;;;;;;4.05;3.10;;;;;;;19.37;100.00;97531.72;5093974;28;20924;-74
2023/08/12 01:56:24;;;;;;;3.80;2.92;;;;;;;19.37;100.00;97531.72;5093803;28;20409;-74
2023/08/12 01:58:50;;;;;;;4.55;2.90;;;;;;;19.34;100.00;97530.41;5092994;28;20406;-74
2023/08/12 02:01:17;;;;;;;3.65;3.15;;;;;;;19.34;100.00;97528.53;5093751;28;20402;-74
2023/08/12 02:03:43;;;;;;;5.20;2.75;;;;;;;19.33;100.00;97529.63;5093808;28;20402;-74
2023/08/12 02:06:09;;;;;;;3.28;2.70;;;;;;;19.36;100.00;97535.50;5093643;28;20907;-74
2023/08/12 02:08:35;;;;;;;4.32;3.00;;;;;;;19.35;100.00;97532.00;5093386;28;20471;-74
2023/08/12 02:11:01;;;;;;;3.73;2.73;;;;;;;19.36;100.00;97533.59;5093583;28;20493;-74
2023/08/12 02:13:29;;;;;;;3.50;2.92;;;;;;;19.37;100.00;97529.03;5075284;28;20467;-74
2023/08/12 02:15:55;;;;;;;3.65;2.90;;;;;;;19.39;100.00;97533.00;5093401;28;20402;-74
2023/08/12 02:18:21;;;;;;;3.40;2.90;;;;;;;19.41;100.00;97530.78;5093170;28;20440;-73
2023/08/12 02:20:48;;;;;;;3.78;2.80;;;;;;;19.41;100.00;97528.09;5093247;28;20408;-74
2023/08/12 02:23:14;;;;;;;3.50;2.83;;;;;;;19.45;100.00;97522.94;5093346;28;20910;-74
2023/08/12 02:25:40;;;;;;;3.90;2.83;;;;;;;19.47;100.00;97526.16;5093164;28;20406;-74
2023/08/12 02:28:07;;;;;;;4.20;3.00;;;;;;;19.49;100.00;97526.63;5093051;28;20401;-74
2023/08/12 02:30:34;;;;;;;3.38;2.70;;;;;;;19.49;100.00;97522.03;5093111;28;20426;-74
2023/08/12 02:33:00;;;;;;;3.22;2.67;;;;;;;19.51;100.00;97517.16;5093075;28;20455;-74
2023/08/12 02:35:27;;;;;;;2.97;2.60;;;;;;;19.53;100.00;97514.19;5093049;28;20444;-74
2023/08/12 02:37:53;;;;;;;3.50;2.55;;;;;;;19.54;100.00;97508.50;5092801;28;20409;-74
2023/08/12 02:40:19;;;;;;;3.67;2.90;;;;;;;19.55;100.00;97512.75;5093111;28;20405;-74
2023/08/12 02:42:45;;;;;;;3.40;2.70;;;;;;;19.57;100.00;97507.88;5092756;28;20488;-74
2023/08/12 02:45:11;;;;;;;3.22;2.78;;;;;;;19.57;100.00;97507.88;5092724;28;20806;-74
2023/08/12 02:47:39;;;;;;;4.05;2.45;;;;;;;19.58;100.00;97506.00;5092950;28;20400;-74
2023/08/12 02:50:07;;;;;;;3.65;3.00;;;;;;;19.58;100.00;97504.09;5092680;28;20481;-74
2023/08/12 02:52:33;;;;;;;3.38;2.75;;;;;;;19.58;100.00;97508.69;5091279;28;20398;-74
2023/08/12 02:54:59;;;;;;;2.63;2.42;;;;;;;19.57;100.00;97504.41;5092728;28;20398;-74
2023/08/12 02:57:26;;;;;;;4.68;2.55;;;;;;;19.57;100.00;97507.09;5092606;28;20895;-74
2023/08/12 02:59:52;;;;;;;3.70;2.53;;;;;;;19.58;100.00;97506.78;5092384;28;20548;-74
2023/08/12 03:02:18;;;;;;;2.60;2.22;;;;;;;19.59;100.00;97511.06;5092522;28;20402;-74
2023/08/12 03:04:46;;;;;;;2.95;2.47;;;;;;;19.61;100.00;97506.19;5092417;28;20425;-74
2023/08/12 03:07:12;;;;;;;2.43;2.23;;;;;;;19.63;100.00;97505.84;5092456;28;20420;-74
2023/08/12 03:09:38;;;;;;;4.70;2.22;;;;;;;19.65;100.00;97500.97;5092265;28;20402;-74
2023/08/12 03:12:05;;;;;;;3.30;2.53;;;;;;;19.66;100.00;97500.69;5092386;28;20885;-74
2023/08/12 03:14:32;;;;;;;2.60;2.38;;;;;;;19.66;100.00;97498.00;5092366;28;20505;-74
2023/08/12 03:16:58;;;;;;;2.70;2.45;;;;;;;19.69;100.00;97497.41;5092343;28;20400;-74
2023/08/12 03:19:24;;;;;;;3.95;2.50;;;;;;;19.70;100.00;97490.09;5092117;28;20409;-74
2023/08/12 03:21:52;;;;;;;4.17;3.20;;;;;;;19.72;100.00;97490.59;5092066;28;20397;-74
2023/08/12 03:24:18;;;;;;;3.38;2.85;;;;;;;19.72;100.00;97493.28;5092035;28;20406;-74
2023/08/12 03:26:44;;;;;;;3.60;2.90;;;;;;;19.71;100.00;97489.00;5092007;28;20406;-74
2023/08/12 03:29:11;;;;;;;3.50;2.85;;;;;;;19.71;100.00;97484.44;5091932;28;20459;-74
2023/08/12 03:31:37;;;;;;;4.38;3.50;;;;;;;19.72;100.00;97490.59;5092143;28;20807;-74
2023/08/12 03:34:03;;;;;;;4.47;3.15;;;;;;;19.72;100.00;97485.22;5091999;28;20401;-74
2023/08/12 03:36:29;;;;;;;3.00;2.53;;;;;;;19.71;100.00;97484.44;5091975;28;20456;-74
2023/08/12 03:38:57;;;;;;;5.25;3.20;;;;;;;19.73;100.00;97486.03;5091675;28;20779;-74
2023/08/12 03:41:23;;;;;;;3.40;2.50;;;;;;;19.73;100.00;97486.03;5076257;28;20421;-74
2023/08/12 03:43:49;;;;;;;3.50;2.75;;;;;;;19.73;100.00;97486.81;5071505;28;20753;-74
2023/08/12 03:46:17;;;;;;;3.88;3.20;;;;;;;19.74;100.00;97490.28;5071433;28;20894;-74
2023/08/12 03:48:43;;;;;;;3.25;2.50;;;;;;;19.74;100.00;97491.09;5071171;28;20486;-74
2023/08/12 03:51:09;;;;;;;3.40;2.78;;;;;;;19.74;100.00;97492.97;5071328;28;20403;-74
2023/08/12 03:53:35;;;;;;;3.90;3.05;;;;;;;19.74;100.00;97491.09;5071299;28;20792;-74
2023/08/12 03:56:03;;;;;;;4.57;3.07;;;;;;;19.74;100.00;97493.78;5071136;28;20406;-74
2023/08/12 03:58:30;;;;;;;3.75;2.63;;;;;;;19.75;100.00;97497.25;5071148;28;20406;-74
2023/08/12 04:00:56;;;;;;;3.42;2.78;;;;;;;19.75;100.00;97494.56;5070972;28;20403;-74
2023/08/12 04:03:22;;;;;;;2.80;2.40;;;;;;;19.76;100.00;97493.47;5070726;28;20435;-74
2023/08/12 04:05:49;;;;;;;3.25;2.65;;;;;;;19.75;100.00;97495.38;5070984;28;20419;-74
2023/08/12 04:08:15;;;;;;;4.80;3.15;;;;;;;19.78;100.00;97491.25;5071005;28;20396;-74
2023/08/12 04:10:45;;;;;;;3.92;3.25;;;;;;;19.80;100.00;97492.53;5070839;28;20766;-74
2023/08/12 04:13:13;;;;;;;5.88;3.50;;;;;;;19.82;100.00;97481.50;5070999;28;20399;-74
2023/08/12 04:15:39;;;;;;;6.20;3.28;;;;;;;19.86;100.00;97485.13;5070806;28;20396;-74
2023/08/12 04:18:05;;;;;;;5.45;3.60;;;;;;;19.89;100.00;97493.38;5070881;28;20947;-74
2023/08/12 04:20:32;;;;;;;4.63;3.20;;;;;;;19.91;100.00;97512.69;5070915;28;20490;-74
2023/08/12 04:22:58;;;;;;;3.90;3.28;;;;;;;19.92;100.00;97513.47;5069965;28;20411;-74
2023/08/12 04:25:25;;;;;;;3.72;2.85;;;;;;;19.91;100.00;97518.06;5070598;28;20460;-74
2023/08/12 04:27:51;;;;;;;3.10;2.78;;;;;;;19.92;100.00;97525.00;5070738;28;20403;-74
2023/08/12 04:30:19;;;;;;;3.78;2.70;;;;;;;19.92;100.00;97522.31;5070573;28;20403;-74
2023/08/12 04:32:45;;;;;;;4.50;2.92;;;;;;;19.94;100.00;97525.50;5070521;28;20435;-74
2023/08/12 04:35:11;;;;;;;4.30;3.45;;;;;;;19.98;100.00;97526.47;5070585;28;20754;-74
2023/08/12 04:37:38;;;;;;;4.32;3.05;;;;;;;19.99;100.00;97519.22;5070487;28;20474;-74
2023/08/12 04:40:07;;;;;;;4.23;3.00;;;;;;;19.99;100.00;97513.84;5070466;28;20875;-74
2023/08/12 04:42:33;;;;;;;4.43;3.17;;;;;;;19.98;100.00;97507.66;5070371;28;20395;-74
2023/08/12 04:44:59;;;;;;;4.28;3.25;;;;;;;19.96;100.00;97509.84;5070433;28;20434;-74
2023/08/12 04:47:26;;;;;;;5.20;3.38;;;;;;;19.94;100.00;97511.25;5070383;28;20403;-74
2023/08/12 04:49:53;;;;;;;4.55;3.00;;;;;;;19.93;100.00;97515.03;5070205;28;20427;-74
2023/08/12 04:52:20;;;;;;;3.90;2.75;;;;;;;19.93;100.00;97506.97;5070348;28;20477;-74
2023/08/12 04:54:46;;;;;;;3.87;3.00;;;;;;;19.94;100.00;97525.50;5070328;28;20457;-74
2023/08/12 04:57:12;;;;;;;4.38;3.42;;;;;;;19.97;100.00;97526.78;5070212;28;20431;-74
2023/08/12 04:59:39;;;;;;;7.40;3.95;;;;;;;19.97;100.00;97519.50;5070147;28;20431;-74
2023/08/12 05:02:05;;;;;;;4.13;3.55;;;;;;;19.97;100.00;97513.34;5070199;28;20408;-74
2023/08/12 05:04:32;;;;;;;4.23;3.10;;;;;;;19.96;100.00;97507.16;5070192;28;20395;-74
2023/08/12 05:06:59;;;;;;;3.83;3.20;;;;;;;19.96;100.00;97495.63;5070238;28;20415;-74
2023/08/12 05:09:25;;;;;;;4.13;3.33;;;;;;;19.94;100.00;97509.38;5069773;28;20400;-74
2023/08/12 05:11:51;;;;;;;4.45;3.20;;;;;;;19.89;100.00;97501.44;5070107;28;20404;-74
2023/08/12 05:14:17;;;;;;;3.30;3.00;;;;;;;19.86;100.00;97498.56;5070195;28;20404;-74
2023/08/12 05:16:43;;;;;;;3.80;3.00;;;;;;;19.84;100.00;97506.16;5073981;28;20411;-74
2023/08/12 05:19:09;;;;;;;3.70;2.92;;;;;;;19.83;100.00;97513.44;5074255;28;20396;-74
2023/08/12 05:21:37;;;;;;;3.70;2.97;;;;;;;19.84;100.00;97527.66;5074155;28;20474;-74
2023/08/12 05:24:04;;;;;;;5.38;4.10;;;;;;;19.82;100.00;97527.16;5073938;28;20407;-74
2023/08/12 05:26:30;;;;;;;5.78;3.80;;;;;;;19.81;100.00;97534.44;5074080;28;20423;-74
2023/08/12 05:28:56;;;;;;;5.95;3.60;;;;;;;19.82;100.00;97524.47;5074052;28;20396;-74
2023/08/12 05:31:22;;;;;;;4.65;3.65;;;;;;;19.82;100.00;97516.41;5072636;28;20765;-74
2023/08/12 05:33:48;;;;;;;4.80;3.50;;;;;;;19.81;100.00;97510.25;5073998;28;20404;-75
2023/08/12 05:36:14;;;;;;;3.95;3.20;;;;;;;19.79;100.00;97519.69;5073981;28;20948;-74
2023/08/12 05:38:42;;;;;;;4.00;3.10;;;;;;;19.74;100.00;97526.00;5073802;28;20409;-75
2023/08/12 05:41:08;;;;;;;6.40;4.15;;;;;;;19.66;100.00;97513.31;5073743;28;20399;-75
2023/08/12 05:43:34;;;;;;;8.05;5.63;;;;;;;19.52;100.00;97502.66;5073739;28;20477;-75
2023/08/12 05:46:01;;;;;;;6.57;4.55;;;;;;;19.45;100.00;97504.94;5073873;28;20434;-75
2023/08/12 05:48:27;;;;;;;6.10;4.33;;;;;;;19.45;100.00;97512.19;5073481;28;20777;-75
2023/08/12 05:50:53;;;;;;;4.28;3.65;;;;;;;19.48;100.00;97520.44;5073511;28;20418;-75
2023/08/12 05:53:21;;;;;;;4.60;3.80;;;;;;;19.53;100.00;97523.03;5073815;28;20426;-75
2023/08/12 05:55:48;;;;;;;5.18;4.10;;;;;;;19.54;100.00;97511.19;5074013;28;20411;-75
2023/08/12 05:58:15;;;;;;;4.88;4.00;;;;;;;19.57;100.00;97518.63;5073498;28;20893;-75
2023/08/12 06:00:45;;;;;;;4.25;3.85;;;;;;;19.60;100.00;97509.97;5073589;28;20400;-75
2023/08/12 06:03:12;;;;;;;4.32;3.60;;;;;;;19.65;100.00;97514.41;5073594;28;20403;-75
2023/08/12 06:05:38;;;;;;;3.90;3.47;;;;;;;19.69;100.00;97524.25;5073374;28;20746;-75
2023/08/12 06:08:04;;;;;;;5.68;4.53;;;;;;;19.74;100.00;97528.69;5073169;28;20418;-75
2023/08/12 06:10:31;;;;;;;5.28;4.35;;;;;;;19.75;100.00;97526.81;5073295;28;20395;-75
2023/08/12 06:12:58;;;;;;;10.18;5.75;;;;;;;19.74;100.00;97533.28;5073297;28;20431;-75
2023/08/12 06:15:24;;;;;;;5.43;4.25;;;;;;;19.73;100.00;97508.31;5073269;28;20407;-75
2023/08/12 06:17:50;;;;;;;6.55;5.28;;;;;;;19.74;100.00;97503.72;5073119;28;20457;-75
2023/08/12 06:20:17;;;;;;;7.85;5.57;;;;;;;19.71;100.00;97505.13;5073087;28;20486;-75
2023/08/12 06:22:43;;;;;;;7.03;5.13;;;;;;;19.75;100.00;97499.94;5073099;28;20890;-75
2023/08/12 06:25:09;;;;;;;5.03;4.35;;;;;;;19.80;100.00;97495.22;5072981;28;20430;-75
2023/08/12 06:27:35;;;;;;;4.40;3.90;;;;;;;19.90;100.00;97499.56;5072606;28;20396;-75
2023/08/12 06:30:04;;;;;;;4.97;4.10;;;;;;;20.00;100.00;97504.66;5072902;28;20942;-75
2023/08/12 06:32:30;;;;;;;4.18;3.60;;;;;;;20.09;100.00;97511.66;5072961;28;20396;-75
2023/08/12 06:34:56;;;;;;;4.53;3.50;;;;;;;20.18;100.00;97506.31;5076223;28;20398;-75
2023/08/12 06:37:23;;;;;;;4.03;3.30;;;;;;;20.25;100.00;97506.66;5093149;28;20397;-75
2023/08/12 06:39:49;;;;;;;3.88;3.20;;;;;;;20.31;100.00;97510.78;5092978;28;20432;-75
2023/08/12 06:42:15;;;;;;;3.60;2.97;;;;;;;20.35;100.00;97503.75;5092900;28;20398;-75
2023/08/12 06:44:41;;;;;;;4.60;3.55;;;;;;;20.40;100.00;97510.88;5092868;28;20503;-75
2023/08/12 06:47:09;;;;;;;3.90;3.50;;;;;;;20.45;100.00;97510.72;5092866;28;20405;-75
2023/08/12 06:49:35;;;;;;;5.32;4.03;;;;;;;20.51;100.00;97506.81;5092604;28;20402;-75
2023/08/12 06:52:01;;;;;;;4.07;3.65;;;;;;;20.63;100.00;97517.75;5092660;28;20876;-75
2023/08/12 06:54:28;;;;;;;5.13;4.00;;;;;;;20.74;100.00;97504.81;5092819;28;20394;-75
2023/08/12 06:56:54;;;;;;;4.10;3.67;;;;;;;20.85;100.00;97500.69;5092508;28;20402;-75
2023/08/12 06:59:20;;;;;;;3.67;3.30;;;;;;;20.98;100.00;97507.03;5092616;28;20492;-75
2023/08/12 07:01:46;;;;;;;4.45;3.58;;;;;;;21.04;100.00;97509.28;5092581;28;20548;-75
2023/08/12 07:04:14;;;;;;;3.90;3.50;;;;;;;21.11;100.00;97506.13;5092521;28;20398;-75
2023/08/12 07:06:40;;;;;;;4.68;3.55;;;;;;;21.17;100.00;97511.06;5092383;28;20891;-75
2023/08/12 07:09:06;;;;;;;3.47;3.10;;;;;;;21.26;100.00;97502.19;5092364;28;20408;-75
2023/08/12 07:11:32;;;;;;;3.37;3.07;;;;;;;21.35;100.00;97505.69;5092409;28;20402;-75
2023/08/12 07:13:58;;;;;;;3.08;2.78;;;;;;;21.44;100.00;97507.25;5092562;28;20940;-75
2023/08/12 07:16:25;;;;;;;3.22;2.88;;;;;;;21.48;100.00;97497.44;5092510;28;20405;-75
2023/08/12 07:18:52;;;;;;;2.83;2.53;;;;;;;21.49;100.00;97500.91;5092159;28;20394;-75
2023/08/12 07:21:20;;;;;;;3.00;2.40;;;;;;;21.46;100.00;97505.03;5093309;28;20402;-76
2023/08/12 07:23:46;;;;;;;3.00;2.70;;;;;;;21.45;100.00;97508.03;5092166;28;20876;-75
2023/08/12 07:26:12;;;;;;;3.72;2.88;;;;;;;21.49;100.00;97511.69;5092361;28;20445;-75
2023/08/12 07:28:38;;;;;;;3.08;2.70;;;;;;;21.58;100.00;97510.56;5073792;28;20452;-75
2023/08/12 07:31:04;;;;;;;3.27;2.77;;;;;;;21.67;100.00;97515.13;5092164;28;20478;-75
2023/08/12 07:33:30;;;;;;;3.80;2.85;;;;;;;21.78;100.00;97516.41;5092310;28;20409;-75
2023/08/12 07:35:57;;;;;;;3.20;2.90;;;;;;;21.86;100.00;97511.00;5091900;28;20481;-74
2023/08/12 07:38:24;;;;;;;3.45;2.80;;;;;;;21.98;100.00;97515.75;5091138;28;20433;-74
2023/08/12 07:40:51;;;;;;;2.63;2.37;;;;;;;22.07;100.00;97510.31;5091871;28;20398;-74
2023/08/12 07:43:17;;;;;;;2.95;2.60;;;;;;;22.14;100.00;97505.22;5092036;28;20413;-74
2023/08/12 07:45:43;;;;;;;2.80;2.60;;;;;;;22.20;100.00;97510.13;5091735;28;20588;-74
2023/08/12 07:48:09;;;;;;;3.30;2.47;;;;;;;22.28;100.00;97501.22;5091724;28;20405;-74
2023/08/12 07:50:36;;;;;;;3.15;2.60;;;;;;;22.35;100.00;97504.19;5091764;28;20436;-74
2023/08/12 07:53:02;;;;;;;4.15;2.78;;;;;;;22.44;100.00;97508.75;5091685;28;20919;-74
2023/08/12 07:55:29;;;;;;;3.10;2.75;;;;;;;22.52;100.00;97506.03;5091710;28;20390;-74
2023/08/12 07:57:56;;;;;;;2.95;2.58;;;;;;;22.62;100.00;97511.06;5092038;28;20866;-74
2023/08/12 08:00:22;;;;;;;3.20;2.67;;;;;;;22.69;100.00;97508.63;5091622;28;20406;-74
2023/08/12 08:02:48;;;;;;;4.40;2.92;;;;;;;22.78;100.00;97508.59;5091437;28;20489;-74
2023/08/12 08:05:15;;;;;;;3.50;2.73;;;;;;;22.88;100.00;97504.72;5091352;28;20488;-74
2023/08/12 08:07:41;;;;;;;2.53;2.30;;;;;;;23.01;100.00;97495.56;5091368;28;20813;-74
2023/08/12 08:10:08;;;;;;;3.22;2.92;;;;;;;23.12;100.00;97496.78;5091271;28;20406;-74
2023/08/12 08:12:35;;;;;;;2.92;2.63;;;;;;;23.27;100.00;97498.09;5091130;28;20402;-74
2023/08/12 08:15:03;;;;;;;3.03;2.72;;;;;;;23.42;100.00;97492.88;5091221;28;20397;-74
2023/08/12 08:17:29;;;;;;;2.93;2.60;;;;;;;23.61;100.00;97487.00;5091435;28;20876;-74
2023/08/12 08:19:55;;;;;;;3.20;2.80;;;;;;;23.76;100.00;97485.56;5090960;28;20406;-74
2023/08/12 08:22:22;;;;;;;3.15;2.47;;;;;;;23.82;100.00;97486.97;5091189;28;20413;-74
2023/08/12 08:24:48;;;;;;;3.05;2.72;;;;;;;23.79;100.00;97484.91;5091864;28;20406;-75
2023/08/12 08:27:14;;;;;;;7.07;4.10;;;;;;;23.69;100.00;97485.31;5091557;28;20489;-74
2023/08/12 08:29:41;;;;;;;3.90;3.20;;;;;;;23.74;100.00;97485.94;5090758;28;20887;-74
2023/08/12 08:32:08;;;;;;;4.18;3.42;;;;;;;23.84;100.00;97482.00;5090814;28;20405;-74
2023/08/12 08:34:34;;;;;;;3.67;3.30;;;;;;;24.00;100.00;97482.13;5090799;28;20432;-74
2023/08/12 08:37:00;;;;;;;4.20;2.90;;;;;;;24.17;100.00;97482.75;5090968;28;20473;-74
2023/08/12 08:39:27;;;;;;;4.43;3.08;;;;;;;24.29;100.00;97485.47;5090802;28;20409;-74
2023/08/12 08:41:55;;;;;;;3.97;2.88;;;;;;;24.40;100.00;97493.94;5072617;28;20918;-74
2023/08/12 08:44:25;;;;;;;3.25;2.80;;;;;;;24.46;100.00;97499.91;5072768;28;20409;-74
2023/08/12 08:46:54;;;;;;;2.80;2.60;;;;;;;24.41;100.00;97500.16;5091589;28;20443;-74
2023/08/12 08:49:21;;;;;;;3.20;2.85;;;;;;;24.35;100.00;97499.59;5090609;28;20500;-74
2023/08/12 08:51:47;;;;;;;3.13;2.75;;;;;;;24.40;100.00;97496.66;5090559;28;20398;-74
2023/08/12 08:54:15;;;;;;;2.97;2.67;;;;;;;24.52;100.00;97491.22;5090699;28;20406;-73
2023/08/12 08:56:41;;;;;;;2.80;2.45;;;;;;;24.67;100.00;97493.25;5090569;28;20402;-74
2023/08/12 08:59:07;;;;;;;3.05;2.75;;;;;;;24.80;100.00;97490.53;5090673;28;20398;-74
2023/08/12 09:01:36;;;;;;;3.17;2.80;;;;;;;24.95;100.00;97495.28;5090483;28;20821;-74
2023/08/12 09:04:05;;;;;;;3.63;2.95;;;;;;;25.03;100.00;97484.28;5090446;28;20419;-74
2023/08/12 09:06:33;;;;;;;4.95;3.00;;;;;;;25.12;100.00;97470.63;5090503;28;20410;-74
2023/08/12 09:09:00;;;;;;;3.90;2.90;;;;;;;25.26;100.00;97481.88;5090373;28;20771;-74
2023/08/12 09:11:27;;;;;;;3.42;2.92;;;;;;;25.41;100.00;97491.97;5090305;28;20390;-75
2023/08/12 09:13:53;;;;;;;3.28;2.60;;;;;;;25.58;100.00;97485.50;5090355;28;20466;-74
2023/08/12 09:16:20;;;;;;;3.90;2.87;;;;;;;25.75;100.00;97484.41;5091629;28;20810;-75
2023/08/12 09:18:46;;;;;;;4.20;2.70;;;;;;;25.92;100.00;97494.16;5090357;28;20398;-75
2023/08/12 09:21:15;;;;;;;5.20;3.13;;;;;;;26.08;100.00;97486.81;5090365;28;20447;-75
2023/08/12 09:23:43;;;;;;;3.53;3.00;;;;;;;26.28;100.00;97488.50;5090419;28;20398;-75
2023/08/12 09:26:17;;;;;;;2.97;2.67;;;;;;;26.47;100.00;97488.56;5090360;28;20495;-75
2023/08/12 09:28:44;;;;;;;3.22;2.70;;;;;;;26.70;100.00;97490.66;5090249;28;20435;-75
2023/08/12 09:31:23;;;;;;;3.60;2.70;;;;;;;26.88;100.00;97484.47;5090379;28;20861;-75
2023/08/12 09:33:49;;;;;;;4.43;2.38;;;;;;;27.13;100.00;97473.41;5090079;28;21182;-75
2023/08/12 09:36:17;;;;;;;3.53;2.20;;;;;;;27.35;100.00;97478.91;5090218;28;20390;-75
2023/08/12 09:38:44;;;;;;;3.28;2.60;;;;;;;27.46;100.00;97476.38;5090191;28;20522;-75
2023/08/12 09:41:10;;;;;;;3.50;2.73;;;;;;;27.57;100.00;97476.63;5090161;28;20405;-75
2023/08/12 09:43:41;;;;;;;2.50;2.30;;;;;;;27.61;100.00;97472.81;5090118;28;20398;-75
2023/08/12 09:46:10;;;;;;;2.50;2.20;;;;;;;27.52;100.00;97466.78;5090143;28;20448;-75
2023/08/12 09:48:36;;;;;;;3.40;2.63;;;;;;;27.41;100.00;97465.03;5090126;28;20481;-74
2023/08/12 09:51:02;;;;;;;3.23;2.50;;;;;;;27.31;100.00;97455.50;5090063;28;20397;-72
2023/08/12 09:53:32;;;;;;;3.17;2.50;;;;;;;27.15;100.00;97454.78;5090243;28;20456;-74
2023/08/12 09:56:05;;;;;;;2.80;2.30;;;;;;;26.99;100.00;97454.84;5071984;28;20401;-75
2023/08/12 09:58:33;;;;;;;4.60;2.80;;;;;;;26.77;100.00;97459.00;5089945;28;20485;-75
2023/08/12 10:01:01;;;;;;;4.93;2.95;;;;;;;26.54;100.00;97450.72;5090836;28;20390;-75
2023/08/12 10:03:30;;;;;;;5.20;3.10;;;;;;;25.93;100.00;97452.34;5094082;28;20484;-76
2023/08/12 10:05:57;;;;;;;3.83;2.72;;;;;;;25.32;100.00;97463.47;5093848;28;20487;-76
2023/08/12 10:08:24;;;;;;;3.50;2.60;;;;;;;24.79;100.00;97454.56;5093836;28;20397;-75
2023/08/12 10:10:52;;;;;;;3.90;2.83;;;;;;;24.44;100.00;97456.16;5094485;28;20406;-75
2023/08/12 10:13:19;;;;;;;3.67;3.05;;;;;;;24.23;100.00;97458.97;5094213;28;20844;-75
2023/08/12 10:15:45;;;;;;;2.95;2.65;;;;;;;24.14;100.00;97450.94;5093915;28;20482;-76
2023/08/12 10:18:13;;;;;;;6.40;2.60;;;;;;;24.10;100.00;97449.25;5093383;28;20480;-75
2023/08/12 10:20:39;;;;;;;3.00;2.67;;;;;;;24.10;100.00;97452.75;5093358;28;20398;-75
2023/08/12 10:23:07;;;;;;;2.60;2.30;;;;;;;24.18;100.00;97451.84;5093815;28;20405;-75
2023/08/12 10:25:34;;;;;;;2.75;2.30;;;;;;;24.28;100.00;97450.66;5093546;28;20440;-75
2023/08/12 10:28:02;;;;;;;3.90;2.90;;;;;;;24.40;100.00;97452.56;5093574;28;20402;-75
2023/08/12 10:30:33;;;;;;;2.25;1.88;;;;;;;24.59;100.00;97450.06;5093349;28;20451;-75
2023/08/12 10:33:00;;;;;;;4.20;2.85;;;;;;;24.71;100.00;97454.69;5093203;28;20402;-75
2023/08/12 10:35:42;;;;;;;4.82;2.75;;;;;;;24.86;100.00;97465.59;5093157;28;20404;-75
2023/08/12 10:38:08;;;;;;;3.03;2.47;;;;;;;24.95;100.00;97457.38;5093193;28;20523;-75
2023/08/12 10:40:35;;;;;;;2.95;2.10;;;;;;;25.18;100.00;97458.44;5093248;28;20878;-74
2023/08/12 10:43:02;;;;;;;4.00;2.90;;;;;;;25.41;100.00;97451.31;5092940;28;20406;-74
2023/08/12 10:45:42;;;;;;;3.65;2.72;;;;;;;25.54;100.00;97452.06;5092978;28;20500;-74
2023/08/12 10:48:16;;;;;;;4.43;2.83;;;;;;;25.61;100.00;97455.00;5092885;28;20390;-74
2023/08/12 10:50:45;;;;;;;5.30;3.50;;;;;;;25.63;100.00;97450.03;5092810;28;20418;-75
2023/08/12 10:53:24;;;;;;;3.20;2.90;;;;;;;25.72;100.00;97450.63;5092790;28;20981;-75
2023/08/12 10:55:54;;;;;;;3.83;3.22;;;;;;;25.69;100.00;97443.22;5092601;28;20394;-75
2023/08/12 10:58:33;;;;;;;4.40;3.27;;;;;;;25.79;100.00;97445.38;5092791;28;20405;-75
2023/08/12 11:01:00;;;;;;;4.70;3.63;;;;;;;25.81;100.00;97451.25;5092728;28;20409;-74
2023/08/12 11:03:31;;;;;;;3.85;2.95;;;;;;;25.88;100.00;97447.16;5092562;28;20397;-75
2023/08/12 11:06:00;;;;;;;5.07;3.30;;;;;;;25.85;100.00;97453.28;5092662;28;20410;-74
2023/08/12 11:08:27;;;;;;;4.88;3.63;;;;;;;25.77;100.00;97446.88;5092382;28;20401;-74
2023/08/12 11:10:57;;;;;;;3.95;3.10;;;;;;;26.00;100.00;97445.16;5092398;28;20546;-74
2023/08/12 11:13:26;;;;;;;4.53;3.45;;;;;;;25.87;100.00;97449.06;5091352;28;20485;-74
2023/08/12 11:16:07;;;;;;;4.70;3.28;;;;;;;26.01;100.00;97448.66;5092303;28;20514;-75
2023/08/12 11:18:34;;;;;;;4.32;3.15;;;;;;;26.24;100.00;97441.44;5092350;28;20405;-74
2023/08/12 11:21:01;;;;;;;6.20;3.00;;;;;;;26.31;100.00;97430.81;5092426;28;20406;-72
2023/08/12 11:23:28;;;;;;;3.10;2.63;;;;;;;26.33;100.00;97431.25;5092290;28;20747;-72